JSO Airport (Cherokee County) Information

FAA: JSO - ICAO: KJSO

JSO Airport Location

State Texas
County Cherokee
City Jacksonville
JSO Airport is 6 miles southeast of Jacksonville, TX.
Latitude 31-52-09.5893N
Longitude 095-13-02.6597W
Elevation 677ft

KJSO Airport METARs

METAR KJSO 262355Z AUTO 00000KT 10SM CLR 06/02 A3024 RMK AO2 T00620030
Altimeter 30.24"
Temperature 6.2°C (43.2°F)
Wind 0° at 0KT
Clouds Skies are clear.
Visibility 10.0mi
Time observed: 2021-11-26T23:55:00Z

JSO Airport Details

Status Operational
Activation June 1964
Ownership Public
Usage Public
Chart HOUSTON
ATC on-site No
Beacon schedule sunset-sunrise
Beacon color clear green

JSO Airport Contacts

Owner CHEROKEE COUNTY
Owner address 135 S. MAIN 3RD FLOOR, RUSK, TX 75785
Owner phone (903) 683-2324
Manager ARON KULHAVY, AICP
Manager address 448 SH 75 NORTH, HUNTSVILLE, TX 77340
Manager phone (936) 295-8136

JSO Airport (Cherokee County) Radio Frequencies

JSO (Airport) Radio Frequencies

UNICOM 122.7
Common traffic advisory frequency (CTAF) 122.7